Time;durP1;ratioP1;P1;durP2;ratioP2;P2;SDS_P1;SDS_P2;PMS_P1;PMS_P2;Temp;Humidity;BMP_temperature;BMP_pressure;BME280_temperature;BME280_humidity;BME280_pressure;Samples;Min_cycle;Max_cycle;Signal;HPM_P1;HPM_P2
2024/03/15 00:00:58;;;;;;;3.72;2.50;;;7.00;99.90;;;;;;2068741;28;20217;-73
2024/03/15 00:01:59;;;;;;;3.67;2.80;;;6.90;99.90;;;;;;2066694;28;20229;-73
2024/03/15 00:03:01;;;;;;;4.83;3.27;;;7.00;99.90;;;;;;2070915;28;20477;-74
2024/03/15 00:04:02;;;;;;;3.22;2.70;;;7.00;99.90;;;;;;2070388;28;20232;-73
2024/03/15 00:05:03;;;;;;;6.50;2.73;;;7.00;99.90;;;;;;2068854;28;20190;-73
2024/03/15 00:06:05;;;;;;;2.90;2.20;;;7.00;99.90;;;;;;2058364;28;20759;-74
2024/03/15 00:07:05;;;;;;;4.13;2.55;;;7.00;99.90;;;;;;2063618;28;20229;-74
2024/03/15 00:08:06;;;;;;;2.90;2.60;;;7.10;99.90;;;;;;2057625;28;20182;-74
2024/03/15 00:09:09;;;;;;;3.70;2.43;;;7.00;99.90;;;;;;2065576;28;20178;-75
2024/03/15 00:10:10;;;;;;;2.60;1.80;;;6.90;99.90;;;;;;2074780;28;20184;-74
2024/03/15 00:11:10;;;;;;;3.43;2.47;;;6.80;99.90;;;;;;2073965;28;20651;-74
2024/03/15 00:12:11;;;;;;;4.00;2.37;;;6.70;99.90;;;;;;2074283;28;20255;-74
2024/03/15 00:13:12;;;;;;;3.03;2.47;;;6.80;99.90;;;;;;2073886;28;20576;-74
2024/03/15 00:14:12;;;;;;;3.53;2.63;;;6.70;99.90;;;;;;2073116;28;20181;-74
2024/03/15 00:15:13;;;;;;;3.10;2.50;;;6.60;99.90;;;;;;2080105;28;20184;-74
2024/03/15 00:16:14;;;;;;;3.07;2.30;;;6.60;99.90;;;;;;2075691;28;20191;-74
2024/03/15 00:17:14;;;;;;;3.53;3.20;;;6.60;99.90;;;;;;2066242;28;20178;-75
2024/03/15 00:18:17;;;;;;;3.27;2.67;;;6.50;99.90;;;;;;2075547;28;20186;-74
2024/03/15 00:19:18;;;;;;;4.15;2.47;;;6.40;99.90;;;;;;2073738;28;20187;-74
2024/03/15 00:20:19;;;;;;;3.77;2.70;;;6.40;99.90;;;;;;2073400;28;20204;-74
2024/03/15 00:21:19;;;;;;;3.33;3.03;;;6.40;99.90;;;;;;2066252;28;20190;-74
2024/03/15 00:22:23;;;;;;;4.50;3.33;;;6.40;99.90;;;;;;2066468;28;20203;-74
2024/03/15 00:23:24;;;;;;;3.53;2.60;;;6.40;99.90;;;;;;2074471;28;20241;-74
2024/03/15 00:24:25;;;;;;;3.80;2.50;;;6.30;99.90;;;;;;2070036;28;20248;-74
2024/03/15 00:25:26;;;;;;;2.92;2.45;;;6.30;99.90;;;;;;2074334;28;20915;-74
2024/03/15 00:26:26;;;;;;;2.70;2.40;;;6.30;99.90;;;;;;2073796;28;20241;-75
2024/03/15 00:27:27;;;;;;;3.57;2.60;;;6.30;99.90;;;;;;2073312;28;20292;-74
2024/03/15 00:28:28;;;;;;;4.37;2.90;;;6.40;99.90;;;;;;2074198;28;20240;-75
2024/03/15 00:29:29;;;;;;;3.63;2.47;;;6.30;99.90;;;;;;2073773;28;20225;-74
2024/03/15 00:30:30;;;;;;;3.65;2.60;;;6.40;99.90;;;;;;2074044;28;20232;-74
2024/03/15 00:31:31;;;;;;;5.13;2.33;;;6.40;99.90;;;;;;2074352;28;20253;-74
2024/03/15 00:32:31;;;;;;;2.73;2.30;;;6.40;99.90;;;;;;2066357;28;20790;-75
2024/03/15 00:33:32;;;;;;;3.87;2.30;;;6.40;99.90;;;;;;2055727;28;20269;-74
2024/03/15 00:34:36;;;;;;;2.03;1.83;;;6.50;99.90;;;;;;2065302;28;20312;-74
2024/03/15 00:35:36;;;;;;;3.17;1.98;;;6.50;99.90;;;;;;2074011;28;20308;-74
2024/03/15 00:36:37;;;;;;;2.00;1.60;;;6.50;99.90;;;;;;2081795;28;20745;-75
2024/03/15 00:37:38;;;;;;;1.37;1.10;;;6.50;99.90;;;;;;2077386;28;20232;-74
2024/03/15 00:38:38;;;;;;;2.30;1.37;;;6.60;99.90;;;;;;2069177;28;20225;-74
2024/03/15 00:39:39;;;;;;;2.03;1.60;;;6.70;99.90;;;;;;2066150;28;20224;-74
2024/03/15 00:40:40;;;;;;;2.13;1.47;;;6.80;99.90;;;;;;2074485;28;20212;-74
2024/03/15 00:41:42;;;;;;;2.00;1.57;;;6.90;99.90;;;;;;2082085;28;20701;-75
2024/03/15 00:42:42;;;;;;;3.35;1.50;;;7.10;99.90;;;;;;2069211;28;20217;-74
2024/03/15 00:43:43;;;;;;;1.50;1.40;;;7.20;99.90;;;;;;2075537;28;20666;-75
2024/03/15 00:44:44;;;;;;;3.13;1.53;;;7.30;99.90;;;;;;2072827;28;20220;-74
2024/03/15 00:45:44;;;;;;;2.50;1.10;;;7.50;99.90;;;;;;2073370;28;20225;-74
2024/03/15 00:46:45;;;;;;;2.93;1.20;;;7.60;99.90;;;;;;2075586;28;20224;-74
2024/03/15 00:47:46;;;;;;;2.60;1.73;;;7.70;99.90;;;;;;2067520;28;20644;-74
2024/03/15 00:48:46;;;;;;;2.03;1.47;;;7.80;99.90;;;;;;2068564;28;20209;-74
2024/03/15 00:49:47;;;;;;;2.80;1.50;;;7.80;99.90;;;;;;2080824;28;20252;-74
2024/03/15 00:50:49;;;;;;;1.13;1.00;;;7.90;99.90;;;;;;2083932;28;20749;-74
2024/03/15 00:51:50;;;;;;;1.33;1.23;;;8.00;99.90;;;;;;2083861;28;20307;-74
2024/03/15 00:52:50;;;;;;;2.33;1.30;;;8.00;99.90;;;;;;2075670;28;20228;-74
2024/03/15 00:53:51;;;;;;;1.30;1.20;;;7.90;99.90;;;;;;2079608;28;20220;-75
2024/03/15 00:54:52;;;;;;;1.30;1.00;;;7.90;99.90;;;;;;2074727;28;20243;-74
2024/03/15 00:55:52;;;;;;;1.43;0.93;;;8.00;99.90;;;;;;2075689;28;20220;-74
2024/03/15 00:56:53;;;;;;;1.20;1.10;;;8.00;99.90;;;;;;2072295;28;20262;-74
2024/03/15 00:57:54;;;;;;;1.40;0.90;;;8.10;99.90;;;;;;2072025;28;20244;-75
2024/03/15 00:58:55;;;;;;;1.10;1.00;;;8.20;99.90;;;;;;2075914;28;20718;-74
2024/03/15 00:59:55;;;;;;;1.93;1.33;;;8.30;99.90;;;;;;2070052;28;20310;-74
2024/03/15 01:00:57;;;;;;;1.97;1.20;;;8.40;99.90;;;;;;2059450;28;20767;-74
2024/03/15 01:01:59;;;;;;;1.52;1.13;;;8.40;99.90;;;;;;2048879;28;20218;-74
2024/03/15 01:03:00;;;;;;;1.40;1.20;;;8.50;98.00;;;;;;2048429;28;20286;-74
2024/03/15 01:04:00;;;;;;;1.30;0.90;;;8.60;97.70;;;;;;2055157;28;20235;-74
2024/03/15 01:05:01;;;;;;;1.07;0.90;;;8.60;98.30;;;;;;2060500;28;20264;-74
2024/03/15 01:06:02;;;;;;;1.23;0.83;;;8.60;98.30;;;;;;2060438;28;20611;-74
2024/03/15 01:07:03;;;;;;;1.20;1.00;;;8.70;97.50;;;;;;2064127;28;20554;-75
2024/03/15 01:08:06;;;;;;;4.20;1.20;;;8.80;97.60;;;;;;2061338;28;20577;-75
2024/03/15 01:09:07;;;;;;;1.60;1.27;;;8.80;96.70;;;;;;2074672;28;20276;-75
2024/03/15 01:10:08;;;;;;;1.00;0.90;;;8.80;96.40;;;;;;2075134;28;20658;-74
2024/03/15 01:11:08;;;;;;;1.70;1.20;;;8.90;95.90;;;;;;2075334;28;20181;-74
2024/03/15 01:12:09;;;;;;;1.10;0.90;;;8.90;97.10;;;;;;2081463;28;20205;-75
2024/03/15 01:13:10;;;;;;;1.33;1.00;;;9.00;95.80;;;;;;2083106;28;20551;-75
2024/03/15 01:14:10;;;;;;;1.20;1.10;;;9.00;95.60;;;;;;2083948;28;20241;-74
2024/03/15 01:15:11;;;;;;;0.93;0.90;;;9.10;95.40;;;;;;2075278;28;20191;-75
2024/03/15 01:16:12;;;;;;;3.97;1.30;;;9.10;94.70;;;;;;2066146;28;20214;-75
2024/03/15 01:17:15;;;;;;;1.37;1.20;;;9.20;93.80;;;;;;2075109;28;20193;-75
2024/03/15 01:18:16;;;;;;;1.75;1.13;;;9.30;94.40;;;;;;2068559;28;20197;-75
2024/03/15 01:19:17;;;;;;;0.93;0.90;;;9.30;94.50;;;;;;2059380;28;20711;-74
2024/03/15 01:20:17;;;;;;;1.50;0.90;;;9.40;93.40;;;;;;2060245;28;20187;-75
2024/03/15 01:21:18;;;;;;;1.23;0.70;;;9.40;92.40;;;;;;2059256;28;20188;-75
2024/03/15 01:22:20;;;;;;;1.00;0.90;;;9.50;92.40;;;;;;2059669;28;20211;-75
2024/03/15 01:23:22;;;;;;;1.30;1.00;;;9.50;91.30;;;;;;2059928;28;20238;-74
2024/03/15 01:24:22;;;;;;;1.10;1.00;;;9.50;91.00;;;;;;2078799;28;20239;-75
2024/03/15 01:25:24;;;;;;;1.17;1.07;;;9.50;92.10;;;;;;2075052;28;20239;-75
2024/03/15 01:26:24;;;;;;;2.08;1.08;;;9.70;88.60;;;;;;2068015;28;20859;-74
2024/03/15 01:27:25;;;;;;;1.10;1.00;;;9.70;91.30;;;;;;2076073;28;20319;-75
2024/03/15 01:28:26;;;;;;;3.33;1.00;;;9.70;90.50;;;;;;2075090;28;20589;-75
2024/03/15 01:29:28;;;;;;;1.80;1.05;;;9.80;90.60;;;;;;2083702;28;20232;-74
2024/03/15 01:30:31;;;;;;;1.10;0.93;;;9.90;89.60;;;;;;2083114;28;20232;-75
2024/03/15 01:31:31;;;;;;;3.35;0.90;;;9.80;90.00;;;;;;2067060;28;20283;-75
2024/03/15 01:32:33;;;;;;;0.80;0.80;;;9.80;90.90;;;;;;2059388;28;20234;-75
2024/03/15 01:33:34;;;;;;;1.27;0.90;;;9.80;90.60;;;;;;2076069;28;20236;-75
2024/03/15 01:34:35;;;;;;;1.27;1.10;;;10.00;88.80;;;;;;2074619;28;20233;-75
2024/03/15 01:35:35;;;;;;;1.52;1.05;;;9.90;90.10;;;;;;2075036;28;20722;-75
2024/03/15 01:36:36;;;;;;;1.00;0.90;;;10.00;88.60;;;;;;2075344;28;20225;-74
2024/03/15 01:37:38;;;;;;;2.03;1.30;;;10.00;89.10;;;;;;2083099;28;20772;-74
2024/03/15 01:38:39;;;;;;;2.10;0.95;;;10.00;88.80;;;;;;2075757;28;20237;-74
2024/03/15 01:39:40;;;;;;;2.07;1.10;;;9.90;85.80;;;;;;2070651;28;20234;-74
2024/03/15 01:40:41;;;;;;;0.97;0.80;;;9.90;85.80;;;;;;2080490;28;20229;-75
2024/03/15 01:41:43;;;;;;;1.48;1.08;;;10.00;86.00;;;;;;2070740;28;20601;-75
2024/03/15 01:42:44;;;;;;;1.55;0.90;;;10.00;85.80;;;;;;2067013;28;20714;-75
2024/03/15 01:43:50;;;;;;;1.33;0.90;;;10.00;86.80;;;;;;2067943;28;20267;-75
2024/03/15 01:44:53;;;;;;;1.75;1.00;;;10.10;85.30;;;;;;2073582;28;20698;-74
2024/03/15 01:45:54;;;;;;;1.63;0.93;;;10.10;84.90;;;;;;2063796;28;20221;-75
2024/03/15 01:46:55;;;;;;;1.67;1.40;;;10.20;82.60;;;;;;2063370;28;20316;-74
2024/03/15 01:47:57;;;;;;;0.90;0.80;;;10.20;82.00;;;;;;2074966;28;20221;-75
2024/03/15 01:48:59;;;;;;;1.08;0.90;;;10.20;81.50;;;;;;2067856;28;20718;-75
2024/03/15 01:50:01;;;;;;;3.22;1.08;;;10.30;80.20;;;;;;2080225;28;20652;-75
2024/03/15 01:51:03;;;;;;;1.20;1.10;;;10.40;79.80;;;;;;2075832;28;20304;-75
2024/03/15 01:52:05;;;;;;;1.23;1.00;;;10.40;79.40;;;;;;2067694;28;20204;-74
2024/03/15 01:53:07;;;;;;;1.70;1.10;;;10.30;79.90;;;;;;2074624;28;20189;-74
2024/03/15 01:54:10;;;;;;;1.58;1.00;;;10.30;80.80;;;;;;2075555;28;20184;-74
2024/03/15 01:55:11;;;;;;;1.75;1.17;;;10.30;80.70;;;;;;2074876;28;20541;-74
2024/03/15 01:56:12;;;;;;;1.13;0.93;;;10.30;80.30;;;;;;2077704;28;20219;-74
2024/03/15 01:57:17;;;;;;;1.20;0.90;;;10.30;81.70;;;;;;2078627;28;20679;-74
2024/03/15 01:58:18;;;;;;;2.78;1.10;;;10.20;81.70;;;;;;2074978;28;20268;-74
2024/03/15 01:59:19;;;;;;;1.20;1.00;;;10.20;81.70;;;;;;2073840;28;20189;-74
2024/03/15 02:00:20;;;;;;;2.27;1.07;;;10.20;81.20;;;;;;2067101;28;20186;-74
2024/03/15 02:01:21;;;;;;;1.55;1.20;;;10.10;80.10;;;;;;2070190;28;20216;-73
2024/03/15 02:02:22;;;;;;;1.02;0.93;;;10.10;80.40;;;;;;2075399;28;20251;-75
2024/03/15 02:03:23;;;;;;;0.98;0.80;;;10.10;80.40;;;;;;2067181;28;20249;-74
2024/03/15 02:04:24;;;;;;;1.20;1.05;;;10.10;81.00;;;;;;2065644;28;20229;-74
2024/03/15 02:05:25;;;;;;;1.70;1.17;;;10.10;80.20;;;;;;2065817;28;20229;-74
2024/03/15 02:06:26;;;;;;;1.20;1.00;;;10.10;80.60;;;;;;2066596;28;20312;-73
2024/03/15 02:07:29;;;;;;;3.60;1.00;;;10.10;81.80;;;;;;2074155;28;20303;-74
2024/03/15 02:08:30;;;;;;;1.23;0.95;;;10.00;81.10;;;;;;2074426;28;20233;-74
2024/03/15 02:09:30;;;;;;;1.47;1.03;;;10.10;81.00;;;;;;2074081;28;20779;-74
2024/03/15 02:10:31;;;;;;;2.37;1.33;;;10.00;81.80;;;;;;2073813;28;20308;-74
2024/03/15 02:11:32;;;;;;;1.53;1.00;;;10.00;82.40;;;;;;2074070;28;20291;-74
2024/03/15 02:12:33;;;;;;;2.10;1.10;;;10.00;83.50;;;;;;2073500;28;20596;-74
2024/03/15 02:13:33;;;;;;;2.08;1.40;;;9.90;83.70;;;;;;2074201;28;20700;-74
2024/03/15 02:14:34;;;;;;;2.03;1.37;;;9.90;82.60;;;;;;2065687;28;20233;-74
2024/03/15 02:15:36;;;;;;;1.37;1.00;;;9.90;84.30;;;;;;2069587;28;20230;-74
2024/03/15 02:16:37;;;;;;;1.55;0.95;;;9.90;82.60;;;;;;2068466;28;20325;-74
2024/03/15 02:17:42;;;;;;;2.75;1.10;;;9.80;82.50;;;;;;2066399;28;20578;-74
2024/03/15 02:18:43;;;;;;;3.08;1.20;;;9.80;83.20;;;;;;2070462;28;20229;-74
2024/03/15 02:19:46;;;;;;;1.42;1.00;;;9.80;82.50;;;;;;2074453;28;20228;-74
2024/03/15 02:20:48;;;;;;;2.78;1.10;;;9.80;82.10;;;;;;2075076;28;20225;-74
2024/03/15 02:21:48;;;;;;;1.10;0.75;;;9.80;82.60;;;;;;2065268;28;20222;-74
2024/03/15 02:22:49;;;;;;;1.33;1.13;;;9.90;82.20;;;;;;2070924;28;20253;-74
2024/03/15 02:23:50;;;;;;;1.33;0.90;;;9.90;81.60;;;;;;2073626;28;20221;-73
2024/03/15 02:24:50;;;;;;;1.10;1.00;;;10.00;82.30;;;;;;2068766;28;20640;-74
2024/03/15 02:25:51;;;;;;;1.10;1.00;;;9.90;81.40;;;;;;2078813;28;20232;-74
2024/03/15 02:26:52;;;;;;;1.17;1.00;;;9.90;81.30;;;;;;2082332;28;20262;-74
2024/03/15 02:27:52;;;;;;;1.73;1.13;;;10.00;80.80;;;;;;2070242;28;20315;-74
2024/03/15 02:28:53;;;;;;;1.27;1.00;;;10.00;80.80;;;;;;2053986;28;20860;-74
2024/03/15 02:29:55;;;;;;;3.17;0.90;;;9.90;80.60;;;;;;2061586;28;20258;-74
2024/03/15 02:30:55;;;;;;;1.60;1.05;;;10.00;80.90;;;;;;2075359;28;20222;-74
2024/03/15 02:31:56;;;;;;;1.80;1.00;;;10.00;80.90;;;;;;2073346;28;20297;-74
2024/03/15 02:32:58;;;;;;;1.80;1.00;;;10.00;81.00;;;;;;2073455;28;20296;-74
2024/03/15 02:34:00;;;;;;;1.52;1.23;;;10.00;80.20;;;;;;2069784;28;20326;-74
2024/03/15 02:35:01;;;;;;;3.75;1.13;;;10.10;80.30;;;;;;2070413;28;20675;-74
2024/03/15 02:36:02;;;;;;;1.02;0.80;;;10.00;80.50;;;;;;2072568;28;20221;-73
2024/03/15 02:37:03;;;;;;;1.37;1.00;;;10.10;79.90;;;;;;2069071;28;20225;-74
2024/03/15 02:38:04;;;;;;;1.00;0.90;;;10.10;79.20;;;;;;2065896;28;20197;-74
2024/03/15 02:39:04;;;;;;;5.53;1.50;;;10.10;79.10;;;;;;2071812;28;20194;-74
2024/03/15 02:40:09;;;;;;;2.00;1.47;;;10.10;79.00;;;;;;2070088;28;20593;-74
2024/03/15 02:41:10;;;;;;;2.28;1.10;;;10.00;79.30;;;;;;2057455;28;20684;-74
2024/03/15 02:42:11;;;;;;;2.90;1.60;;;10.00;79.80;;;;;;2069597;28;20236;-74
2024/03/15 02:43:12;;;;;;;5.23;1.10;;;10.10;80.10;;;;;;2074220;28;20267;-74
2024/03/15 02:44:13;;;;;;;3.55;1.20;;;10.20;78.70;;;;;;2056973;28;20190;-75
2024/03/15 02:45:14;;;;;;;3.95;1.17;;;10.20;78.60;;;;;;2057438;28;20186;-74
2024/03/15 02:46:15;;;;;;;2.60;1.27;;;10.20;79.40;;;;;;2069777;28;20676;-75
2024/03/15 02:47:16;;;;;;;1.83;1.00;;;10.10;79.80;;;;;;2078565;28;20271;-75
2024/03/15 02:48:16;;;;;;;1.80;1.10;;;10.20;79.70;;;;;;2086999;28;20188;-74
2024/03/15 02:49:17;;;;;;;1.83;1.10;;;10.10;80.10;;;;;;2074968;28;20177;-74
2024/03/15 02:50:20;;;;;;;1.40;1.00;;;10.10;80.60;;;;;;2073559;28;20223;-74
2024/03/15 02:51:24;;;;;;;1.70;0.95;;;10.00;80.70;;;;;;2076396;28;20193;-74
2024/03/15 02:52:25;;;;;;;1.40;1.02;;;10.00;80.40;;;;;;2073444;28;20331;-74
2024/03/15 02:53:26;;;;;;;2.13;1.30;;;10.10;80.10;;;;;;2068066;28;20233;-74
2024/03/15 02:54:28;;;;;;;3.50;1.20;;;10.10;81.50;;;;;;2057811;28;20229;-74
2024/03/15 02:55:29;;;;;;;1.50;1.10;;;10.10;80.70;;;;;;2060343;28;20226;-74
2024/03/15 02:56:29;;;;;;;1.67;1.10;;;10.10;80.50;;;;;;2065403;28;20569;-74
2024/03/15 02:57:31;;;;;;;3.33;1.10;;;10.10;80.90;;;;;;2057379;28;20238;-74
2024/03/15 02:58:31;;;;;;;1.83;0.95;;;10.10;80.80;;;;;;2065897;28;20233;-74
2024/03/15 02:59:32;;;;;;;1.27;1.00;;;10.00;81.80;;;;;;2048285;28;20258;-73
2024/03/15 03:00:34;;;;;;;2.17;1.37;;;10.00;82.20;;;;;;2058571;28;20618;-74
2024/03/15 03:01:35;;;;;;;1.88;1.27;;;10.00;82.20;;;;;;2065610;28;20237;-74
2024/03/15 03:02:36;;;;;;;1.40;0.93;;;10.00;82.00;;;;;;2059137;28;20843;-74
2024/03/15 03:03:36;;;;;;;2.03;1.10;;;9.90;81.50;;;;;;2067800;28;20312;-74
2024/03/15 03:04:37;;;;;;;2.13;1.20;;;9.90;82.10;;;;;;2068124;28;20269;-74
2024/03/15 03:05:41;;;;;;;2.00;0.87;;;9.90;82.00;;;;;;2075308;28;20703;-74
2024/03/15 03:06:42;;;;;;;1.48;1.10;;;9.90;82.20;;;;;;2074203;28;20249;-74
2024/03/15 03:07:43;;;;;;;1.23;1.05;;;9.90;82.00;;;;;;2073551;28;20216;-74
2024/03/15 03:08:43;;;;;;;0.77;0.73;;;10.00;81.60;;;;;;2065068;28;20230;-74
2024/03/15 03:09:44;;;;;;;1.57;0.93;;;9.90;81.10;;;;;;2064200;28;20245;-74
2024/03/15 03:10:45;;;;;;;2.57;0.80;;;9.90;82.00;;;;;;2066775;28;20723;-74
2024/03/15 03:11:45;;;;;;;1.33;1.00;;;10.00;81.10;;;;;;2061668;28;20284;-74
2024/03/15 03:12:46;;;;;;;1.10;0.90;;;10.00;81.10;;;;;;2074016;28;20229;-75
2024/03/15 03:13:47;;;;;;;1.43;0.80;;;10.00;80.30;;;;;;2074825;28;20221;-74
2024/03/15 03:14:48;;;;;;;1.60;1.10;;;10.00;80.50;;;;;;2066832;28;20222;-74
2024/03/15 03:15:49;;;;;;;1.13;1.00;;;10.00;80.80;;;;;;2074082;28;20225;-74
2024/03/15 03:16:50;;;;;;;1.10;1.00;;;10.00;80.80;;;;;;2068533;28;20213;-74
2024/03/15 03:17:51;;;;;;;2.20;1.20;;;10.10;81.40;;;;;;2069474;28;20221;-74
2024/03/15 03:18:55;;;;;;;2.83;1.30;;;10.10;81.20;;;;;;2073155;28;20225;-74
2024/03/15 03:19:56;;;;;;;1.10;1.00;;;10.10;80.30;;;;;;2069202;28;20222;-74
2024/03/15 03:20:57;;;;;;;1.35;1.10;;;10.10;81.80;;;;;;2076933;28;20220;-74
2024/03/15 03:21:59;;;;;;;2.40;0.90;;;10.00;81.20;;;;;;2073374;28;20237;-74
2024/03/15 03:23:00;;;;;;;2.45;0.80;;;10.00;81.40;;;;;;2073957;28;20315;-74
2024/03/15 03:24:00;;;;;;;3.13;1.00;;;10.00;81.00;;;;;;2073388;28;20244;-74
2024/03/15 03:25:02;;;;;;;3.70;0.93;;;10.00;80.40;;;;;;2072098;28;20244;-74
2024/03/15 03:26:03;;;;;;;1.10;1.00;;;10.00;81.00;;;;;;2069915;28;20925;-74
2024/03/15 03:27:05;;;;;;;1.73;1.00;;;10.10;80.60;;;;;;2060734;28;20696;-74
2024/03/15 03:28:06;;;;;;;1.30;0.85;;;10.10;80.80;;;;;;2060119;28;20209;-73
2024/03/15 03:29:06;;;;;;;0.83;0.83;;;10.10;80.70;;;;;;2074974;28;20188;-74
2024/03/15 03:30:09;;;;;;;6.60;1.20;;;10.10;80.40;;;;;;2072118;28;20248;-74
2024/03/15 03:31:09;;;;;;;2.33;1.00;;;10.20;80.10;;;;;;2060552;28;20186;-74
2024/03/15 03:32:10;;;;;;;2.93;1.23;;;10.10;80.20;;;;;;2064895;28;20202;-74
2024/03/15 03:33:11;;;;;;;2.23;1.10;;;10.10;80.90;;;;;;2074074;28;20181;-74
2024/03/15 03:34:12;;;;;;;2.23;1.20;;;10.10;80.40;;;;;;2073129;28;20189;-74
2024/03/15 03:35:13;;;;;;;1.42;1.27;;;10.10;80.80;;;;;;2073842;28;20208;-74
2024/03/15 03:36:14;;;;;;;3.03;1.10;;;10.20;80.30;;;;;;2068002;28;20209;-74
2024/03/15 03:37:14;;;;;;;2.37;1.10;;;10.10;80.20;;;;;;2068663;28;20671;-74
2024/03/15 03:38:15;;;;;;;2.37;1.10;;;10.10;81.60;;;;;;2073537;28;20185;-74
2024/03/15 03:39:17;;;;;;;1.27;0.97;;;10.10;80.80;;;;;;2067761;28;20186;-74
2024/03/15 03:40:24;;;;;;;4.97;1.30;;;10.10;80.60;;;;;;2067659;28;20698;-74
2024/03/15 03:41:25;;;;;;;1.52;1.08;;;10.20;79.90;;;;;;2065714;28;20232;-74
2024/03/15 03:42:27;;;;;;;1.43;1.10;;;10.20;80.10;;;;;;2066307;28;20256;-74
2024/03/15 03:43:27;;;;;;;4.72;1.30;;;10.10;80.60;;;;;;2065909;28;20240;-74
2024/03/15 03:44:28;;;;;;;1.73;1.10;;;10.10;81.10;;;;;;2073269;28;20295;-74
2024/03/15 03:45:30;;;;;;;1.27;1.17;;;10.10;81.20;;;;;;2071509;28;20228;-74
2024/03/15 03:46:31;;;;;;;1.98;1.17;;;10.10;81.50;;;;;;2065929;28;20240;-74
2024/03/15 03:47:32;;;;;;;1.20;1.08;;;10.10;81.40;;;;;;2069948;28;20774;-74
2024/03/15 03:48:33;;;;;;;1.90;1.13;;;10.10;81.50;;;;;;2069632;28;20304;-74
2024/03/15 03:49:33;;;;;;;1.43;1.10;;;10.10;81.10;;;;;;2073213;28;20311;-74
2024/03/15 03:50:34;;;;;;;1.90;1.60;;;10.10;81.30;;;;;;2072828;28;20478;-74
2024/03/15 03:51:35;;;;;;;2.93;1.30;;;10.10;82.20;;;;;;2065268;28;20220;-74
2024/03/15 03:52:35;;;;;;;3.57;1.80;;;10.20;81.30;;;;;;2065222;28;20306;-74
2024/03/15 03:53:36;;;;;;;2.30;1.53;;;10.20;81.90;;;;;;2073910;28;20267;-74
2024/03/15 03:54:37;;;;;;;2.87;1.47;;;10.10;82.40;;;;;;2073185;28;20287;-74
2024/03/15 03:55:40;;;;;;;3.25;1.48;;;10.10;82.30;;;;;;2059081;28;20243;-74
2024/03/15 03:56:41;;;;;;;2.40;1.85;;;10.10;82.80;;;;;;2060385;28;20237;-74
2024/03/15 03:57:43;;;;;;;3.28;1.50;;;10.10;82.80;;;;;;2064349;28;20230;-74
2024/03/15 03:58:46;;;;;;;2.30;1.38;;;10.20;82.40;;;;;;2071847;28;20225;-74
2024/03/15 03:59:47;;;;;;;2.05;1.17;;;10.20;82.30;;;;;;2064652;28;20232;-74
2024/03/15 04:00:48;;;;;;;1.73;1.33;;;10.10;82.80;;;;;;2071610;28;20221;-74
2024/03/15 04:01:50;;;;;;;1.23;1.00;;;10.10;83.10;;;;;;2072118;28;20229;-74
2024/03/15 04:02:52;;;;;;;2.47;1.40;;;10.10;84.00;;;;;;2066984;28;20221;-75
2024/03/15 04:03:53;;;;;;;2.38;1.80;;;10.10;83.50;;;;;;2069341;28;20299;-74
2024/03/15 04:04:54;;;;;;;2.07;1.50;;;10.10;84.60;;;;;;2073148;28;20230;-75
2024/03/15 04:05:54;;;;;;;1.60;1.50;;;10.20;83.20;;;;;;2072764;28;20593;-74
2024/03/15 04:06:55;;;;;;;3.33;1.67;;;10.20;84.70;;;;;;2073756;28;20233;-74
2024/03/15 04:07:56;;;;;;;4.47;1.37;;;10.20;83.40;;;;;;2066641;28;20766;-74
2024/03/15 04:08:57;;;;;;;2.70;0.97;;;10.20;83.60;;;;;;2067160;28;20295;-75
2024/03/15 04:09:58;;;;;;;1.48;1.30;;;10.20;83.50;;;;;;2072171;28;20217;-74
2024/03/15 04:10:58;;;;;;;1.97;0.90;;;10.20;83.40;;;;;;2078014;28;20307;-74
2024/03/15 04:11:59;;;;;;;1.50;1.10;;;10.20;83.70;;;;;;2072944;28;20251;-74
2024/03/15 04:13:00;;;;;;;2.93;1.40;;;10.20;83.60;;;;;;2066734;28;20232;-74
2024/03/15 04:14:00;;;;;;;2.10;1.33;;;10.30;83.30;;;;;;2067361;28;20232;-74
2024/03/15 04:15:10;;;;;;;2.87;1.30;;;10.30;83.10;;;;;;2072365;28;20277;-75
2024/03/15 04:16:11;;;;;;;1.20;1.10;;;10.30;83.30;;;;;;2072099;28;20185;-74
2024/03/15 04:17:12;;;;;;;2.17;1.53;;;10.20;83.50;;;;;;2073840;28;20204;-74
2024/03/15 04:18:13;;;;;;;1.20;1.10;;;10.30;83.40;;;;;;2072985;28;20279;-74
2024/03/15 04:19:14;;;;;;;3.55;1.52;;;10.30;83.30;;;;;;2066728;28;20193;-74
2024/03/15 04:20:18;;;;;;;3.20;1.30;;;10.30;83.50;;;;;;2065876;28;20182;-74
2024/03/15 04:21:18;;;;;;;2.42;1.17;;;10.20;83.80;;;;;;2071902;28;20230;-74
2024/03/15 04:22:22;;;;;;;2.43;1.40;;;10.20;84.80;;;;;;2073743;28;21042;-75
2024/03/15 04:23:23;;;;;;;1.58;1.30;;;10.10;85.30;;;;;;2064647;28;20233;-73
2024/03/15 04:24:24;;;;;;;1.20;1.10;;;10.10;85.80;;;;;;2056689;28;20748;-75
2024/03/15 04:25:25;;;;;;;2.40;1.57;;;10.20;86.30;;;;;;2064409;28;20277;-74
2024/03/15 04:26:28;;;;;;;1.80;1.30;;;10.10;86.80;;;;;;2064152;28;20229;-75
2024/03/15 04:27:28;;;;;;;1.40;1.30;;;10.10;87.20;;;;;;2063684;28;20244;-74
2024/03/15 04:28:29;;;;;;;2.10;1.50;;;10.10;87.50;;;;;;2057100;28;20254;-74
2024/03/15 04:29:35;;;;;;;2.20;1.10;;;10.10;87.80;;;;;;2076359;28;20271;-74
2024/03/15 04:30:35;;;;;;;1.92;1.27;;;10.10;88.10;;;;;;2077976;28;20682;-74
2024/03/15 04:31:38;;;;;;;1.97;1.40;;;10.10;88.00;;;;;;2069951;28;20228;-74
2024/03/15 04:32:46;;;;;;;1.77;1.30;;;10.10;89.00;;;;;;2071000;28;20297;-74
2024/03/15 04:33:49;;;;;;;1.85;1.50;;;10.10;88.10;;;;;;2063433;28;20233;-74
2024/03/15 04:34:50;;;;;;;2.70;1.80;;;10.10;89.00;;;;;;2074120;28;20629;-74
2024/03/15 04:35:51;;;;;;;2.13;1.53;;;10.10;89.50;;;;;;2089607;28;20212;-74
2024/03/15 04:36:51;;;;;;;1.67;1.40;;;10.10;89.50;;;;;;2070830;28;20750;-74
2024/03/15 04:37:52;;;;;;;3.13;1.50;;;10.10;89.70;;;;;;2063945;28;20264;-74
2024/03/15 04:38:53;;;;;;;2.53;1.30;;;10.10;89.60;;;;;;2075354;28;20719;-74
2024/03/15 04:39:54;;;;;;;2.63;1.30;;;10.20;89.30;;;;;;2064559;28;20309;-74
2024/03/15 04:40:54;;;;;;;2.10;1.30;;;10.20;88.90;;;;;;2065296;28;20237;-74
2024/03/15 04:41:55;;;;;;;1.83;1.20;;;10.20;88.50;;;;;;2076418;28;20224;-74
2024/03/15 04:42:56;;;;;;;2.53;1.57;;;10.30;88.20;;;;;;2065261;28;20687;-74
2024/03/15 04:43:57;;;;;;;2.28;1.42;;;10.30;88.50;;;;;;2064839;28;20233;-74
2024/03/15 04:45:03;;;;;;;2.22;1.42;;;10.30;89.10;;;;;;2064565;28;20245;-74
2024/03/15 04:46:04;;;;;;;2.25;1.45;;;10.20;89.40;;;;;;2069560;28;20221;-73
2024/03/15 04:47:08;;;;;;;5.47;1.90;;;10.20;90.00;;;;;;2066494;28;20268;-74
2024/03/15 04:48:09;;;;;;;2.60;1.60;;;10.10;90.10;;;;;;2057901;28;20194;-74
2024/03/15 04:49:10;;;;;;;1.80;1.50;;;10.10;90.20;;;;;;2067242;28;20275;-74
2024/03/15 04:50:10;;;;;;;2.20;1.43;;;10.10;90.20;;;;;;2072670;28;20320;-74
2024/03/15 04:51:11;;;;;;;2.80;1.40;;;10.10;90.30;;;;;;2072439;28;20268;-74
2024/03/15 04:52:12;;;;;;;1.47;1.20;;;10.10;90.40;;;;;;2072424;28;20201;-75
2024/03/15 04:53:12;;;;;;;2.37;1.57;;;10.10;90.60;;;;;;2067337;28;20698;-74
2024/03/15 04:54:13;;;;;;;2.50;1.20;;;10.10;90.70;;;;;;2073813;28;20173;-74
2024/03/15 04:55:14;;;;;;;3.77;1.40;;;10.10;90.70;;;;;;2073595;28;20585;-74
2024/03/15 04:56:15;;;;;;;1.97;1.23;;;10.00;90.80;;;;;;2072427;28;20619;-74
2024/03/15 04:57:18;;;;;;;1.50;1.23;;;10.00;91.10;;;;;;2072284;28;20216;-74
2024/03/15 04:58:21;;;;;;;2.38;1.45;;;10.00;91.00;;;;;;2085904;28;20219;-74
2024/03/15 04:59:21;;;;;;;1.88;1.45;;;10.00;91.00;;;;;;2078070;28;20240;-74
2024/03/15 05:00:22;;;;;;;4.37;1.67;;;9.90;91.00;;;;;;2074746;28;20311;-74
2024/03/15 05:01:23;;;;;;;6.87;4.27;;;10.00;91.10;;;;;;2072600;28;20311;-74
2024/03/15 05:02:23;;;;;;;2.70;2.13;;;10.00;91.20;;;;;;2066167;28;20236;-74
2024/03/15 05:03:24;;;;;;;3.33;1.80;;;10.00;91.20;;;;;;2056905;28;20722;-74
2024/03/15 05:04:25;;;;;;;2.63;1.97;;;10.00;91.20;;;;;;2066444;28;20685;-74
2024/03/15 05:05:25;;;;;;;3.20;1.80;;;10.00;91.40;;;;;;2064110;28;20255;-74
2024/03/15 05:06:26;;;;;;;2.00;1.60;;;9.90;91.50;;;;;;2073783;28;20286;-74
2024/03/15 05:07:27;;;;;;;2.20;1.70;;;9.90;91.30;;;;;;2071987;28;20239;-74
2024/03/15 05:08:30;;;;;;;3.17;2.20;;;9.90;91.40;;;;;;2072678;28;20750;-74
2024/03/15 05:09:31;;;;;;;3.13;1.70;;;9.90;92.10;;;;;;2073060;28;20228;-75
2024/03/15 05:10:32;;;;;;;2.33;1.70;;;9.90;91.50;;;;;;2072596;28;20861;-75
2024/03/15 05:11:33;;;;;;;2.03;1.67;;;9.90;91.70;;;;;;2075599;28;20229;-74
2024/03/15 05:12:34;;;;;;;4.40;1.80;;;9.90;92.10;;;;;;2064846;28;20234;-75
2024/03/15 05:13:35;;;;;;;7.10;1.50;;;9.80;92.20;;;;;;2064307;28;20644;-74
2024/03/15 05:14:36;;;;;;;2.47;2.00;;;9.80;92.60;;;;;;2064424;28;20230;-75
2024/03/15 05:15:37;;;;;;;2.97;1.70;;;9.70;92.80;;;;;;2058386;28;20419;-74
2024/03/15 05:16:37;;;;;;;3.37;1.73;;;9.70;93.10;;;;;;2073485;28;20218;-75
2024/03/15 05:17:39;;;;;;;2.50;1.63;;;9.70;93.40;;;;;;2065831;28;20223;-75
2024/03/15 05:18:43;;;;;;;2.60;1.55;;;9.60;93.50;;;;;;2056878;28;20241;-74
2024/03/15 05:19:43;;;;;;;3.25;1.67;;;9.50;93.70;;;;;;2067771;28;20217;-75
2024/03/15 05:20:47;;;;;;;3.00;1.50;;;9.50;93.80;;;;;;2071969;28;20225;-73